sensor_id;sensor_type;location;lat;lon;timestamp;P1;durP1;ratioP1;P2;durP2;ratioP2
63492;SDS011;49638;47.526;10.028;2023-08-21T00:00:44;9.48;;;6.53;;
63492;SDS011;49638;47.526;10.028;2023-08-21T00:03:44;9.20;;;6.53;;
63492;SDS011;49638;47.526;10.028;2023-08-21T00:06:45;7.32;;;5.85;;
63492;SDS011;49638;47.526;10.028;2023-08-21T00:09:45;7.40;;;5.82;;
63492;SDS011;49638;47.526;10.028;2023-08-21T00:12:45;7.78;;;6.15;;
63492;SDS011;49638;47.526;10.028;2023-08-21T00:15:47;9.27;;;6.25;;
63492;SDS011;49638;47.526;10.028;2023-08-21T00:18:47;7.30;;;5.65;;
63492;SDS011;49638;47.526;10.028;2023-08-21T00:21:47;8.77;;;6.45;;
63492;SDS011;49638;47.526;10.028;2023-08-21T00:24:48;8.27;;;5.93;;
63492;SDS011;49638;47.526;10.028;2023-08-21T00:27:48;7.22;;;6.10;;
63492;SDS011;49638;47.526;10.028;2023-08-21T00:30:49;8.48;;;6.40;;
63492;SDS011;49638;47.526;10.028;2023-08-21T00:33:49;7.38;;;6.15;;
63492;SDS011;49638;47.526;10.028;2023-08-21T00:36:49;7.68;;;6.28;;
63492;SDS011;49638;47.526;10.028;2023-08-21T00:39:49;9.07;;;6.28;;
63492;SDS011;49638;47.526;10.028;2023-08-21T00:42:50;7.90;;;6.18;;
63492;SDS011;49638;47.526;10.028;2023-08-21T00:45:50;7.82;;;6.10;;
63492;SDS011;49638;47.526;10.028;2023-08-21T00:48:50;8.48;;;6.40;;
63492;SDS011;49638;47.526;10.028;2023-08-21T00:51:51;8.70;;;6.57;;
63492;SDS011;49638;47.526;10.028;2023-08-21T00:54:52;9.10;;;6.07;;
63492;SDS011;49638;47.526;10.028;2023-08-21T00:57:54;9.25;;;6.30;;
63492;SDS011;49638;47.526;10.028;2023-08-21T01:00:54;8.15;;;6.82;;
63492;SDS011;49638;47.526;10.028;2023-08-21T01:03:55;11.00;;;6.57;;
63492;SDS011;49638;47.526;10.028;2023-08-21T01:06:56;8.15;;;6.13;;
63492;SDS011;49638;47.526;10.028;2023-08-21T01:10:03;8.20;;;6.68;;
63492;SDS011;49638;47.526;10.028;2023-08-21T01:16:59;8.93;;;6.53;;
63492;SDS011;49638;47.526;10.028;2023-08-21T01:20:02;12.10;;;6.88;;
63492;SDS011;49638;47.526;10.028;2023-08-21T01:23:06;9.85;;;6.50;;
63492;SDS011;49638;47.526;10.028;2023-08-21T01:26:06;8.88;;;5.68;;
63492;SDS011;49638;47.526;10.028;2023-08-21T01:29:07;7.45;;;6.22;;
63492;SDS011;49638;47.526;10.028;2023-08-21T01:35:29;8.75;;;6.30;;
63492;SDS011;49638;47.526;10.028;2023-08-21T01:38:31;10.10;;;6.20;;
63492;SDS011;49638;47.526;10.028;2023-08-21T01:41:33;7.37;;;6.50;;
63492;SDS011;49638;47.526;10.028;2023-08-21T01:44:33;7.20;;;6.35;;
63492;SDS011;49638;47.526;10.028;2023-08-21T01:47:33;10.23;;;6.60;;
63492;SDS011;49638;47.526;10.028;2023-08-21T01:50:34;9.13;;;6.72;;
63492;SDS011;49638;47.526;10.028;2023-08-21T01:53:34;9.57;;;6.68;;
63492;SDS011;49638;47.526;10.028;2023-08-21T01:56:34;10.15;;;6.70;;
63492;SDS011;49638;47.526;10.028;2023-08-21T01:59:36;7.32;;;6.47;;
63492;SDS011;49638;47.526;10.028;2023-08-21T02:02:36;11.40;;;6.72;;
63492;SDS011;49638;47.526;10.028;2023-08-21T02:05:37;9.48;;;6.82;;
63492;SDS011;49638;47.526;10.028;2023-08-21T02:08:39;9.32;;;6.68;;
63492;SDS011;49638;47.526;10.028;2023-08-21T02:11:39;9.35;;;6.45;;
63492;SDS011;49638;47.526;10.028;2023-08-21T02:14:39;10.35;;;6.70;;
63492;SDS011;49638;47.526;10.028;2023-08-21T02:17:39;8.52;;;6.45;;
63492;SDS011;49638;47.526;10.028;2023-08-21T02:20:42;10.32;;;6.55;;
63492;SDS011;49638;47.526;10.028;2023-08-21T02:23:42;9.00;;;6.72;;
63492;SDS011;49638;47.526;10.028;2023-08-21T02:26:43;8.75;;;6.68;;
63492;SDS011;49638;47.526;10.028;2023-08-21T02:29:45;9.10;;;6.45;;
63492;SDS011;49638;47.526;10.028;2023-08-21T02:32:45;8.15;;;6.38;;
63492;SDS011;49638;47.526;10.028;2023-08-21T02:35:45;9.25;;;7.18;;
63492;SDS011;49638;47.526;10.028;2023-08-21T02:38:45;7.75;;;6.05;;
63492;SDS011;49638;47.526;10.028;2023-08-21T02:41:46;8.38;;;6.45;;
63492;SDS011;49638;47.526;10.028;2023-08-21T02:44:46;8.00;;;6.53;;
63492;SDS011;49638;47.526;10.028;2023-08-21T02:47:46;8.57;;;6.75;;
63492;SDS011;49638;47.526;10.028;2023-08-21T02:50:48;12.77;;;6.95;;
63492;SDS011;49638;47.526;10.028;2023-08-21T02:53:48;8.10;;;5.97;;
63492;SDS011;49638;47.526;10.028;2023-08-21T02:56:48;8.13;;;6.25;;
63492;SDS011;49638;47.526;10.028;2023-08-21T02:59:49;8.98;;;6.95;;
63492;SDS011;49638;47.526;10.028;2023-08-21T03:02:49;10.52;;;6.50;;
63492;SDS011;49638;47.526;10.028;2023-08-21T03:05:50;9.20;;;7.13;;
63492;SDS011;49638;47.526;10.028;2023-08-21T03:08:50;8.90;;;6.80;;
63492;SDS011;49638;47.526;10.028;2023-08-21T03:11:50;7.43;;;6.40;;
63492;SDS011;49638;47.526;10.028;2023-08-21T03:14:50;9.77;;;7.03;;
63492;SDS011;49638;47.526;10.028;2023-08-21T03:17:51;11.18;;;7.05;;
63492;SDS011;49638;47.526;10.028;2023-08-21T03:20:51;7.75;;;6.40;;
63492;SDS011;49638;47.526;10.028;2023-08-21T03:23:53;9.07;;;6.65;;
63492;SDS011;49638;47.526;10.028;2023-08-21T03:26:55;9.60;;;7.00;;
63492;SDS011;49638;47.526;10.028;2023-08-21T03:29:55;7.88;;;6.72;;
63492;SDS011;49638;47.526;10.028;2023-08-21T03:32:55;7.80;;;6.43;;
63492;SDS011;49638;47.526;10.028;2023-08-21T03:35:56;8.80;;;6.30;;
63492;SDS011;49638;47.526;10.028;2023-08-21T03:38:57;8.40;;;6.50;;
63492;SDS011;49638;47.526;10.028;2023-08-21T03:41:58;9.93;;;6.68;;
63492;SDS011;49638;47.526;10.028;2023-08-21T03:44:58;8.43;;;6.65;;
63492;SDS011;49638;47.526;10.028;2023-08-21T03:47:58;9.50;;;6.90;;
63492;SDS011;49638;47.526;10.028;2023-08-21T03:50:58;7.93;;;6.50;;
63492;SDS011;49638;47.526;10.028;2023-08-21T03:53:59;8.83;;;6.77;;
63492;SDS011;49638;47.526;10.028;2023-08-21T03:56:59;9.30;;;6.50;;
63492;SDS011;49638;47.526;10.028;2023-08-21T03:59:59;9.20;;;7.13;;
63492;SDS011;49638;47.526;10.028;2023-08-21T04:03:00;10.88;;;7.25;;
63492;SDS011;49638;47.526;10.028;2023-08-21T04:06:01;9.57;;;7.18;;
63492;SDS011;49638;47.526;10.028;2023-08-21T04:09:01;8.30;;;6.88;;
63492;SDS011;49638;47.526;10.028;2023-08-21T04:12:04;10.77;;;6.53;;
63492;SDS011;49638;47.526;10.028;2023-08-21T04:15:05;8.77;;;7.18;;
63492;SDS011;49638;47.526;10.028;2023-08-21T04:18:06;11.77;;;7.07;;
63492;SDS011;49638;47.526;10.028;2023-08-21T04:21:06;8.30;;;6.68;;
63492;SDS011;49638;47.526;10.028;2023-08-21T04:24:06;10.43;;;7.90;;
63492;SDS011;49638;47.526;10.028;2023-08-21T04:27:07;8.57;;;6.47;;
63492;SDS011;49638;47.526;10.028;2023-08-21T04:30:07;8.73;;;6.65;;
63492;SDS011;49638;47.526;10.028;2023-08-21T04:33:08;10.00;;;7.03;;
63492;SDS011;49638;47.526;10.028;2023-08-21T04:36:14;9.43;;;6.70;;
63492;SDS011;49638;47.526;10.028;2023-08-21T04:39:15;8.85;;;6.38;;
63492;SDS011;49638;47.526;10.028;2023-08-21T04:42:16;11.73;;;7.03;;
63492;SDS011;49638;47.526;10.028;2023-08-21T04:45:16;9.75;;;6.82;;
63492;SDS011;49638;47.526;10.028;2023-08-21T04:48:16;11.10;;;6.82;;
63492;SDS011;49638;47.526;10.028;2023-08-21T04:51:16;10.13;;;7.00;;
63492;SDS011;49638;47.526;10.028;2023-08-21T04:54:17;10.60;;;7.07;;
63492;SDS011;49638;47.526;10.028;2023-08-21T04:57:17;11.10;;;7.03;;
63492;SDS011;49638;47.526;10.028;2023-08-21T05:00:18;8.18;;;6.78;;
63492;SDS011;49638;47.526;10.028;2023-08-21T05:03:18;9.27;;;6.45;;
63492;SDS011;49638;47.526;10.028;2023-08-21T05:06:18;8.73;;;6.70;;
63492;SDS011;49638;47.526;10.028;2023-08-21T05:09:19;7.40;;;6.60;;
63492;SDS011;49638;47.526;10.028;2023-08-21T05:12:20;7.07;;;6.25;;
63492;SDS011;49638;47.526;10.028;2023-08-21T05:15:20;11.70;;;6.80;;
63492;SDS011;49638;47.526;10.028;2023-08-21T05:18:20;8.77;;;6.95;;
63492;SDS011;49638;47.526;10.028;2023-08-21T05:21:21;8.90;;;6.60;;
63492;SDS011;49638;47.526;10.028;2023-08-21T05:24:21;8.50;;;6.85;;
63492;SDS011;49638;47.526;10.028;2023-08-21T05:27:22;10.75;;;6.82;;
63492;SDS011;49638;47.526;10.028;2023-08-21T05:30:22;8.38;;;6.70;;
63492;SDS011;49638;47.526;10.028;2023-08-21T05:33:22;10.00;;;6.93;;
63492;SDS011;49638;47.526;10.028;2023-08-21T05:36:22;10.15;;;7.00;;
63492;SDS011;49638;47.526;10.028;2023-08-21T05:39:23;8.68;;;6.57;;
63492;SDS011;49638;47.526;10.028;2023-08-21T05:42:23;11.73;;;7.20;;
63492;SDS011;49638;47.526;10.028;2023-08-21T05:45:23;6.97;;;6.27;;
63492;SDS011;49638;47.526;10.028;2023-08-21T05:48:24;9.07;;;6.97;;
63492;SDS011;49638;47.526;10.028;2023-08-21T05:51:24;8.30;;;6.53;;
63492;SDS011;49638;47.526;10.028;2023-08-21T05:54:25;11.27;;;7.05;;
63492;SDS011;49638;47.526;10.028;2023-08-21T05:57:25;7.43;;;6.63;;
63492;SDS011;49638;47.526;10.028;2023-08-21T06:00:26;9.40;;;6.57;;
63492;SDS011;49638;47.526;10.028;2023-08-21T06:03:26;8.97;;;6.77;;
63492;SDS011;49638;47.526;10.028;2023-08-21T06:06:26;10.80;;;6.53;;
63492;SDS011;49638;47.526;10.028;2023-08-21T06:09:27;7.70;;;6.20;;
63492;SDS011;49638;47.526;10.028;2023-08-21T06:12:29;8.82;;;6.57;;
63492;SDS011;49638;47.526;10.028;2023-08-21T06:15:30;8.45;;;6.97;;
63492;SDS011;49638;47.526;10.028;2023-08-21T06:18:30;7.15;;;6.40;;
63492;SDS011;49638;47.526;10.028;2023-08-21T06:21:30;10.32;;;6.82;;
63492;SDS011;49638;47.526;10.028;2023-08-21T06:24:30;9.50;;;6.60;;
63492;SDS011;49638;47.526;10.028;2023-08-21T06:27:31;8.25;;;6.45;;
63492;SDS011;49638;47.526;10.028;2023-08-21T06:30:31;8.73;;;6.25;;
63492;SDS011;49638;47.526;10.028;2023-08-21T06:33:31;7.05;;;6.32;;
63492;SDS011;49638;47.526;10.028;2023-08-21T06:36:32;9.32;;;6.53;;
63492;SDS011;49638;47.526;10.028;2023-08-21T06:39:33;7.57;;;6.63;;
63492;SDS011;49638;47.526;10.028;2023-08-21T06:42:34;7.15;;;6.20;;
63492;SDS011;49638;47.526;10.028;2023-08-21T06:45:34;8.95;;;6.60;;
63492;SDS011;49638;47.526;10.028;2023-08-21T06:48:37;9.65;;;7.05;;
63492;SDS011;49638;47.526;10.028;2023-08-21T06:54:38;7.68;;;6.88;;
63492;SDS011;49638;47.526;10.028;2023-08-21T06:57:38;11.50;;;6.78;;
63492;SDS011;49638;47.526;10.028;2023-08-21T07:00:39;8.20;;;6.67;;
63492;SDS011;49638;47.526;10.028;2023-08-21T07:03:39;8.60;;;6.88;;
63492;SDS011;49638;47.526;10.028;2023-08-21T07:06:39;9.07;;;6.55;;
63492;SDS011;49638;47.526;10.028;2023-08-21T07:09:40;7.60;;;6.57;;
63492;SDS011;49638;47.526;10.028;2023-08-21T07:12:40;7.85;;;6.80;;
63492;SDS011;49638;47.526;10.028;2023-08-21T07:15:40;8.65;;;6.25;;
63492;SDS011;49638;47.526;10.028;2023-08-21T07:18:40;7.27;;;6.57;;
63492;SDS011;49638;47.526;10.028;2023-08-21T07:21:41;7.60;;;6.55;;
63492;SDS011;49638;47.526;10.028;2023-08-21T07:24:41;9.10;;;6.63;;
63492;SDS011;49638;47.526;10.028;2023-08-21T07:27:41;7.97;;;6.53;;
63492;SDS011;49638;47.526;10.028;2023-08-21T07:30:42;7.40;;;6.63;;
63492;SDS011;49638;47.526;10.028;2023-08-21T07:33:42;7.00;;;6.28;;
63492;SDS011;49638;47.526;10.028;2023-08-21T07:36:42;7.68;;;6.40;;
63492;SDS011;49638;47.526;10.028;2023-08-21T07:39:42;8.47;;;6.33;;
63492;SDS011;49638;47.526;10.028;2023-08-21T07:42:43;10.80;;;6.33;;
63492;SDS011;49638;47.526;10.028;2023-08-21T07:45:43;6.80;;;6.10;;
63492;SDS011;49638;47.526;10.028;2023-08-21T07:48:43;7.27;;;6.37;;
63492;SDS011;49638;47.526;10.028;2023-08-21T07:51:46;7.72;;;6.65;;
63492;SDS011;49638;47.526;10.028;2023-08-21T07:54:50;8.63;;;6.77;;
63492;SDS011;49638;47.526;10.028;2023-08-21T07:57:52;7.10;;;6.38;;
63492;SDS011;49638;47.526;10.028;2023-08-21T08:00:52;8.52;;;6.43;;
63492;SDS011;49638;47.526;10.028;2023-08-21T08:03:52;8.77;;;6.53;;
63492;SDS011;49638;47.526;10.028;2023-08-21T08:06:52;9.37;;;6.73;;
63492;SDS011;49638;47.526;10.028;2023-08-21T08:09:53;10.20;;;7.13;;
63492;SDS011;49638;47.526;10.028;2023-08-21T08:12:53;11.60;;;6.70;;
63492;SDS011;49638;47.526;10.028;2023-08-21T08:15:54;7.22;;;6.40;;
63492;SDS011;49638;47.526;10.028;2023-08-21T08:18:54;10.00;;;6.50;;
63492;SDS011;49638;47.526;10.028;2023-08-21T08:21:54;9.97;;;6.60;;
63492;SDS011;49638;47.526;10.028;2023-08-21T08:24:54;7.93;;;6.70;;
63492;SDS011;49638;47.526;10.028;2023-08-21T08:27:55;8.23;;;6.70;;
63492;SDS011;49638;47.526;10.028;2023-08-21T08:30:55;7.70;;;6.90;;
63492;SDS011;49638;47.526;10.028;2023-08-21T08:33:55;7.45;;;6.75;;
63492;SDS011;49638;47.526;10.028;2023-08-21T08:36:55;7.97;;;6.53;;
63492;SDS011;49638;47.526;10.028;2023-08-21T08:39:56;10.75;;;6.85;;
63492;SDS011;49638;47.526;10.028;2023-08-21T08:42:56;9.50;;;6.97;;
63492;SDS011;49638;47.526;10.028;2023-08-21T08:45:56;9.38;;;6.75;;
63492;SDS011;49638;47.526;10.028;2023-08-21T08:48:58;7.32;;;6.50;;
63492;SDS011;49638;47.526;10.028;2023-08-21T08:52:00;8.85;;;7.13;;
63492;SDS011;49638;47.526;10.028;2023-08-21T08:55:01;8.25;;;6.97;;
63492;SDS011;49638;47.526;10.028;2023-08-21T08:58:03;9.35;;;7.10;;
63492;SDS011;49638;47.526;10.028;2023-08-21T09:01:03;9.30;;;6.60;;
63492;SDS011;49638;47.526;10.028;2023-08-21T09:04:03;7.65;;;6.80;;
63492;SDS011;49638;47.526;10.028;2023-08-21T09:07:07;8.57;;;6.30;;
63492;SDS011;49638;47.526;10.028;2023-08-21T09:10:14;8.80;;;6.68;;
63492;SDS011;49638;47.526;10.028;2023-08-21T09:13:16;7.32;;;6.30;;
63492;SDS011;49638;47.526;10.028;2023-08-21T09:16:18;9.10;;;6.53;;
63492;SDS011;49638;47.526;10.028;2023-08-21T09:19:21;9.85;;;6.55;;
63492;SDS011;49638;47.526;10.028;2023-08-21T09:22:22;8.80;;;6.10;;
63492;SDS011;49638;47.526;10.028;2023-08-21T09:25:23;8.80;;;5.53;;
63492;SDS011;49638;47.526;10.028;2023-08-21T09:28:24;7.75;;;5.47;;
63492;SDS011;49638;47.526;10.028;2023-08-21T09:31:31;7.00;;;5.57;;
63492;SDS011;49638;47.526;10.028;2023-08-21T09:34:36;9.00;;;5.85;;
63492;SDS011;49638;47.526;10.028;2023-08-21T09:37:37;8.57;;;6.15;;
63492;SDS011;49638;47.526;10.028;2023-08-21T09:40:40;10.10;;;6.17;;
63492;SDS011;49638;47.526;10.028;2023-08-21T09:43:41;7.40;;;6.25;;
63492;SDS011;49638;47.526;10.028;2023-08-21T09:46:46;9.23;;;6.45;;
63492;SDS011;49638;47.526;10.028;2023-08-21T09:49:48;7.70;;;6.47;;
63492;SDS011;49638;47.526;10.028;2023-08-21T09:52:49;9.43;;;6.70;;
63492;SDS011;49638;47.526;10.028;2023-08-21T09:55:52;8.13;;;6.53;;
63492;SDS011;49638;47.526;10.028;2023-08-21T09:58:53;7.22;;;6.35;;
63492;SDS011;49638;47.526;10.028;2023-08-21T10:01:54;7.43;;;6.35;;
63492;SDS011;49638;47.526;10.028;2023-08-21T10:04:57;7.82;;;6.30;;
63492;SDS011;49638;47.526;10.028;2023-08-21T10:07:59;8.52;;;6.20;;
63492;SDS011;49638;47.526;10.028;2023-08-21T10:11:04;8.98;;;6.55;;
63492;SDS011;49638;47.526;10.028;2023-08-21T10:14:05;6.97;;;6.28;;
63492;SDS011;49638;47.526;10.028;2023-08-21T10:17:05;8.82;;;7.00;;
63492;SDS011;49638;47.526;10.028;2023-08-21T10:20:08;7.60;;;6.32;;
63492;SDS011;49638;47.526;10.028;2023-08-21T10:23:09;7.43;;;6.50;;
63492;SDS011;49638;47.526;10.028;2023-08-21T10:26:09;8.07;;;6.40;;
63492;SDS011;49638;47.526;10.028;2023-08-21T10:29:10;9.80;;;6.78;;
63492;SDS011;49638;47.526;10.028;2023-08-21T10:32:10;11.10;;;6.57;;
63492;SDS011;49638;47.526;10.028;2023-08-21T10:35:30;9.57;;;6.37;;
63492;SDS011;49638;47.526;10.028;2023-08-21T10:38:31;8.52;;;6.45;;
63492;SDS011;49638;47.526;10.028;2023-08-21T10:41:31;10.18;;;6.55;;
63492;SDS011;49638;47.526;10.028;2023-08-21T10:47:58;8.75;;;5.95;;
63492;SDS011;49638;47.526;10.028;2023-08-21T10:51:03;7.15;;;6.43;;
63492;SDS011;49638;47.526;10.028;2023-08-21T10:54:11;7.55;;;6.20;;
63492;SDS011;49638;47.526;10.028;2023-08-21T10:57:13;11.60;;;6.40;;
63492;SDS011;49638;47.526;10.028;2023-08-21T11:00:14;7.13;;;6.03;;
63492;SDS011;49638;47.526;10.028;2023-08-21T11:03:16;7.22;;;6.10;;
63492;SDS011;49638;47.526;10.028;2023-08-21T11:06:18;9.90;;;6.50;;
63492;SDS011;49638;47.526;10.028;2023-08-21T11:09:21;10.13;;;7.18;;
63492;SDS011;49638;47.526;10.028;2023-08-21T11:12:22;9.85;;;6.13;;
63492;SDS011;49638;47.526;10.028;2023-08-21T11:15:27;7.57;;;6.63;;
63492;SDS011;49638;47.526;10.028;2023-08-21T11:18:38;11.35;;;6.82;;
63492;SDS011;49638;47.526;10.028;2023-08-21T11:21:38;9.75;;;6.80;;
63492;SDS011;49638;47.526;10.028;2023-08-21T11:24:45;8.55;;;6.70;;
63492;SDS011;49638;47.526;10.028;2023-08-21T11:27:47;9.80;;;7.45;;
63492;SDS011;49638;47.526;10.028;2023-08-21T11:30:47;8.30;;;6.68;;
63492;SDS011;49638;47.526;10.028;2023-08-21T11:33:51;8.98;;;6.93;;
63492;SDS011;49638;47.526;10.028;2023-08-21T11:36:51;8.63;;;7.07;;
63492;SDS011;49638;47.526;10.028;2023-08-21T11:39:52;10.82;;;6.90;;
63492;SDS011;49638;47.526;10.028;2023-08-21T11:42:59;8.20;;;7.10;;
63492;SDS011;49638;47.526;10.028;2023-08-21T11:46:04;8.30;;;6.55;;
63492;SDS011;49638;47.526;10.028;2023-08-21T11:49:05;8.80;;;6.72;;
63492;SDS011;49638;47.526;10.028;2023-08-21T11:52:05;8.55;;;7.15;;
63492;SDS011;49638;47.526;10.028;2023-08-21T11:55:09;7.70;;;6.90;;
63492;SDS011;49638;47.526;10.028;2023-08-21T11:58:12;11.15;;;7.20;;
63492;SDS011;49638;47.526;10.028;2023-08-21T12:01:19;11.93;;;7.30;;
63492;SDS011;49638;47.526;10.028;2023-08-21T12:04:20;12.10;;;7.53;;
63492;SDS011;49638;47.526;10.028;2023-08-21T12:07:20;8.67;;;7.40;;
63492;SDS011;49638;47.526;10.028;2023-08-21T12:10:28;9.52;;;7.47;;
63492;SDS011;49638;47.526;10.028;2023-08-21T12:13:29;11.25;;;7.70;;
63492;SDS011;49638;47.526;10.028;2023-08-21T12:16:30;8.52;;;7.03;;
63492;SDS011;49638;47.526;10.028;2023-08-21T12:19:31;10.43;;;7.45;;
63492;SDS011;49638;47.526;10.028;2023-08-21T12:22:31;10.48;;;7.00;;
63492;SDS011;49638;47.526;10.028;2023-08-21T12:25:31;9.25;;;7.05;;
63492;SDS011;49638;47.526;10.028;2023-08-21T12:28:32;8.10;;;7.20;;
63492;SDS011;49638;47.526;10.028;2023-08-21T12:31:32;8.60;;;6.70;;
63492;SDS011;49638;47.526;10.028;2023-08-21T12:34:32;9.30;;;6.83;;
63492;SDS011;49638;47.526;10.028;2023-08-21T12:37:33;8.77;;;6.78;;
63492;SDS011;49638;47.526;10.028;2023-08-21T12:40:33;7.50;;;6.63;;
63492;SDS011;49638;47.526;10.028;2023-08-21T12:43:33;8.75;;;6.85;;
63492;SDS011;49638;47.526;10.028;2023-08-21T12:46:34;8.35;;;7.00;;
63492;SDS011;49638;47.526;10.028;2023-08-21T12:49:37;8.48;;;7.07;;
63492;SDS011;49638;47.526;10.028;2023-08-21T12:52:37;9.43;;;6.80;;
63492;SDS011;49638;47.526;10.028;2023-08-21T12:55:38;9.40;;;6.57;;
63492;SDS011;49638;47.526;10.028;2023-08-21T12:58:39;7.20;;;6.43;;
63492;SDS011;49638;47.526;10.028;2023-08-21T13:01:39;7.33;;;6.40;;
63492;SDS011;49638;47.526;10.028;2023-08-21T13:04:40;12.38;;;6.90;;
63492;SDS011;49638;47.526;10.028;2023-08-21T13:07:41;10.57;;;6.57;;
63492;SDS011;49638;47.526;10.028;2023-08-21T13:10:41;9.15;;;6.53;;
63492;SDS011;49638;47.526;10.028;2023-08-21T13:13:42;6.72;;;5.72;;
63492;SDS011;49638;47.526;10.028;2023-08-21T13:16:42;7.65;;;5.90;;
63492;SDS011;49638;47.526;10.028;2023-08-21T13:19:42;7.05;;;6.35;;
63492;SDS011;49638;47.526;10.028;2023-08-21T13:22:50;6.75;;;5.75;;
63492;SDS011;49638;47.526;10.028;2023-08-21T13:25:51;8.88;;;6.18;;
63492;SDS011;49638;47.526;10.028;2023-08-21T13:28:51;8.20;;;5.82;;
63492;SDS011;49638;47.526;10.028;2023-08-21T13:31:51;6.93;;;6.07;;
63492;SDS011;49638;47.526;10.028;2023-08-21T13:34:52;8.40;;;6.50;;
63492;SDS011;49638;47.526;10.028;2023-08-21T13:37:52;7.50;;;6.20;;
63492;SDS011;49638;47.526;10.028;2023-08-21T13:40:52;8.70;;;6.20;;
63492;SDS011;49638;47.526;10.028;2023-08-21T13:43:53;7.00;;;6.23;;
63492;SDS011;49638;47.526;10.028;2023-08-21T13:46:53;7.13;;;6.43;;
63492;SDS011;49638;47.526;10.028;2023-08-21T13:49:53;9.18;;;6.50;;
63492;SDS011;49638;47.526;10.028;2023-08-21T13:52:53;8.63;;;6.68;;
63492;SDS011;49638;47.526;10.028;2023-08-21T13:55:54;9.90;;;6.00;;
63492;SDS011;49638;47.526;10.028;2023-08-21T13:58:54;8.57;;;7.03;;
63492;SDS011;49638;47.526;10.028;2023-08-21T14:01:54;8.20;;;6.50;;
63492;SDS011;49638;47.526;10.028;2023-08-21T14:04:54;9.07;;;7.03;;
63492;SDS011;49638;47.526;10.028;2023-08-21T14:07:55;8.10;;;6.20;;
63492;SDS011;49638;47.526;10.028;2023-08-21T14:10:55;8.43;;;6.63;;
63492;SDS011;49638;47.526;10.028;2023-08-21T14:13:55;8.73;;;5.67;;
63492;SDS011;49638;47.526;10.028;2023-08-21T14:16:55;6.63;;;5.50;;
63492;SDS011;49638;47.526;10.028;2023-08-21T14:19:56;8.20;;;6.17;;
63492;SDS011;49638;47.526;10.028;2023-08-21T14:22:56;11.45;;;5.95;;
63492;SDS011;49638;47.526;10.028;2023-08-21T14:25:56;7.37;;;5.73;;
63492;SDS011;49638;47.526;10.028;2023-08-21T14:28:56;7.85;;;6.22;;
63492;SDS011;49638;47.526;10.028;2023-08-21T14:31:57;7.67;;;6.30;;
63492;SDS011;49638;47.526;10.028;2023-08-21T14:34:59;10.65;;;6.32;;
63492;SDS011;49638;47.526;10.028;2023-08-21T14:38:00;9.10;;;6.28;;
63492;SDS011;49638;47.526;10.028;2023-08-21T14:41:00;7.10;;;5.78;;
63492;SDS011;49638;47.526;10.028;2023-08-21T14:44:00;7.13;;;5.93;;
63492;SDS011;49638;47.526;10.028;2023-08-21T14:47:01;6.27;;;5.57;;
63492;SDS011;49638;47.526;10.028;2023-08-21T14:50:01;7.90;;;5.90;;
63492;SDS011;49638;47.526;10.028;2023-08-21T14:53:02;6.45;;;5.57;;
63492;SDS011;49638;47.526;10.028;2023-08-21T14:56:02;12.20;;;6.00;;
63492;SDS011;49638;47.526;10.028;2023-08-21T14:59:03;7.80;;;5.88;;
63492;SDS011;49638;47.526;10.028;2023-08-21T15:02:04;8.02;;;5.25;;
63492;SDS011;49638;47.526;10.028;2023-08-21T15:05:04;7.07;;;5.47;;
63492;SDS011;49638;47.526;10.028;2023-08-21T15:08:05;6.63;;;5.60;;
63492;SDS011;49638;47.526;10.028;2023-08-21T15:11:05;7.60;;;5.88;;
63492;SDS011;49638;47.526;10.028;2023-08-21T15:14:09;7.13;;;5.05;;
63492;SDS011;49638;47.526;10.028;2023-08-21T15:17:11;7.95;;;5.35;;
63492;SDS011;49638;47.526;10.028;2023-08-21T15:20:11;6.55;;;5.45;;
63492;SDS011;49638;47.526;10.028;2023-08-21T15:23:13;9.60;;;6.20;;
63492;SDS011;49638;47.526;10.028;2023-08-21T15:26:13;6.70;;;5.57;;
63492;SDS011;49638;47.526;10.028;2023-08-21T15:29:13;9.27;;;5.20;;
63492;SDS011;49638;47.526;10.028;2023-08-21T15:32:13;7.07;;;5.53;;
63492;SDS011;49638;47.526;10.028;2023-08-21T15:35:14;7.72;;;5.18;;
63492;SDS011;49638;47.526;10.028;2023-08-21T15:38:15;10.40;;;5.80;;
63492;SDS011;49638;47.526;10.028;2023-08-21T15:41:15;8.97;;;5.80;;
63492;SDS011;49638;47.526;10.028;2023-08-21T15:44:15;9.23;;;5.40;;
63492;SDS011;49638;47.526;10.028;2023-08-21T15:47:15;6.30;;;5.40;;
63492;SDS011;49638;47.526;10.028;2023-08-21T15:50:16;6.73;;;5.20;;
63492;SDS011;49638;47.526;10.028;2023-08-21T15:53:19;9.77;;;5.60;;
63492;SDS011;49638;47.526;10.028;2023-08-21T15:56:19;11.53;;;5.97;;
63492;SDS011;49638;47.526;10.028;2023-08-21T15:59:20;6.97;;;5.87;;
63492;SDS011;49638;47.526;10.028;2023-08-21T16:02:20;6.07;;;5.47;;
63492;SDS011;49638;47.526;10.028;2023-08-21T16:05:20;8.87;;;6.37;;
63492;SDS011;49638;47.526;10.028;2023-08-21T16:08:22;7.88;;;5.88;;
63492;SDS011;49638;47.526;10.028;2023-08-21T16:11:22;12.33;;;6.07;;
63492;SDS011;49638;47.526;10.028;2023-08-21T16:14:23;6.85;;;5.80;;
63492;SDS011;49638;47.526;10.028;2023-08-21T16:17:23;8.00;;;6.67;;
63492;SDS011;49638;47.526;10.028;2023-08-21T16:20:23;8.73;;;6.35;;
63492;SDS011;49638;47.526;10.028;2023-08-21T16:23:27;9.02;;;6.35;;
63492;SDS011;49638;47.526;10.028;2023-08-21T16:26:28;8.23;;;5.63;;
63492;SDS011;49638;47.526;10.028;2023-08-21T16:29:28;10.07;;;6.60;;
63492;SDS011;49638;47.526;10.028;2023-08-21T16:32:29;7.05;;;6.22;;
63492;SDS011;49638;47.526;10.028;2023-08-21T16:35:29;8.38;;;6.10;;
63492;SDS011;49638;47.526;10.028;2023-08-21T16:38:29;7.57;;;6.10;;
63492;SDS011;49638;47.526;10.028;2023-08-21T16:41:30;7.47;;;6.40;;
63492;SDS011;49638;47.526;10.028;2023-08-21T16:44:30;11.65;;;6.78;;
63492;SDS011;49638;47.526;10.028;2023-08-21T16:47:30;7.13;;;6.43;;
63492;SDS011;49638;47.526;10.028;2023-08-21T16:50:30;7.53;;;6.57;;
63492;SDS011;49638;47.526;10.028;2023-08-21T16:53:31;8.13;;;6.68;;
63492;SDS011;49638;47.526;10.028;2023-08-21T16:56:31;9.02;;;6.63;;
63492;SDS011;49638;47.526;10.028;2023-08-21T16:59:32;7.68;;;6.35;;
63492;SDS011;49638;47.526;10.028;2023-08-21T17:02:32;7.82;;;6.82;;
63492;SDS011;49638;47.526;10.028;2023-08-21T17:05:35;10.53;;;6.60;;
63492;SDS011;49638;47.526;10.028;2023-08-21T17:08:35;12.40;;;6.67;;
63492;SDS011;49638;47.526;10.028;2023-08-21T17:11:36;8.10;;;6.40;;
63492;SDS011;49638;47.526;10.028;2023-08-21T17:14:36;7.93;;;6.68;;
63492;SDS011;49638;47.526;10.028;2023-08-21T17:17:36;9.85;;;6.40;;
63492;SDS011;49638;47.526;10.028;2023-08-21T17:20:37;8.73;;;6.40;;
63492;SDS011;49638;47.526;10.028;2023-08-21T17:23:37;6.83;;;5.93;;
63492;SDS011;49638;47.526;10.028;2023-08-21T17:26:37;8.50;;;6.43;;
63492;SDS011;49638;47.526;10.028;2023-08-21T17:29:38;7.05;;;5.95;;
63492;SDS011;49638;47.526;10.028;2023-08-21T17:32:38;5.75;;;5.25;;
63492;SDS011;49638;47.526;10.028;2023-08-21T17:35:38;6.68;;;5.00;;
63492;SDS011;49638;47.526;10.028;2023-08-21T17:38:39;7.23;;;4.83;;
63492;SDS011;49638;47.526;10.028;2023-08-21T17:41:39;7.43;;;5.00;;
63492;SDS011;49638;47.526;10.028;2023-08-21T17:44:39;6.07;;;5.07;;
63492;SDS011;49638;47.526;10.028;2023-08-21T17:47:40;10.48;;;4.63;;
63492;SDS011;49638;47.526;10.028;2023-08-21T17:50:40;9.07;;;5.20;;
63492;SDS011;49638;47.526;10.028;2023-08-21T17:53:42;6.40;;;5.32;;
63492;SDS011;49638;47.526;10.028;2023-08-21T17:56:42;7.30;;;5.18;;
63492;SDS011;49638;47.526;10.028;2023-08-21T17:59:43;6.17;;;5.17;;
63492;SDS011;49638;47.526;10.028;2023-08-21T18:02:43;7.10;;;5.50;;
63492;SDS011;49638;47.526;10.028;2023-08-21T18:05:43;9.97;;;4.87;;